sensor_id;sensor_type;location;lat;lon;timestamp;pressure;altitude;pressure_sealevel;temperature;humidity
32873;BME280;19224;52.462;16.898;2023-04-30T00:01:51;100442.11;;;8.61;100.00
32873;BME280;19224;52.462;16.898;2023-04-30T00:04:22;100439.63;;;8.55;100.00
32873;BME280;19224;52.462;16.898;2023-04-30T00:06:52;100442.00;;;8.64;100.00
32873;BME280;19224;52.462;16.898;2023-04-30T00:09:23;100443.67;;;8.68;100.00
32873;BME280;19224;52.462;16.898;2023-04-30T00:11:53;100449.86;;;8.70;100.00
32873;BME280;19224;52.462;16.898;2023-04-30T00:14:24;100452.81;;;8.63;100.00
32873;BME280;19224;52.462;16.898;2023-04-30T00:16:54;100451.22;;;8.57;100.00
32873;BME280;19224;52.462;16.898;2023-04-30T00:19:25;100451.97;;;8.48;100.00
32873;BME280;19224;52.462;16.898;2023-04-30T00:21:55;100455.89;;;8.38;100.00
32873;BME280;19224;52.462;16.898;2023-04-30T00:24:26;100446.57;;;8.36;100.00
32873;BME280;19224;52.462;16.898;2023-04-30T00:26:56;100456.38;;;8.37;100.00
32873;BME280;19224;52.462;16.898;2023-04-30T00:29:27;100461.18;;;8.28;100.00
32873;BME280;19224;52.462;16.898;2023-04-30T00:32:00;100462.97;;;8.27;100.00
32873;BME280;19224;52.462;16.898;2023-04-30T00:34:30;100463.67;;;8.19;100.00
32873;BME280;19224;52.462;16.898;2023-04-30T00:37:00;100468.29;;;8.14;100.00
32873;BME280;19224;52.462;16.898;2023-04-30T00:39:31;100472.13;;;8.20;100.00
32873;BME280;19224;52.462;16.898;2023-04-30T00:42:02;100475.03;;;8.13;100.00
32873;BME280;19224;52.462;16.898;2023-04-30T00:44:33;100469.09;;;8.03;100.00
32873;BME280;19224;52.462;16.898;2023-04-30T00:47:03;100479.34;;;8.04;100.00
32873;BME280;19224;52.462;16.898;2023-04-30T00:49:34;100477.16;;;8.16;100.00
32873;BME280;19224;52.462;16.898;2023-04-30T00:52:04;100479.44;;;8.15;100.00
32873;BME280;19224;52.462;16.898;2023-04-30T00:54:35;100484.54;;;8.24;100.00
32873;BME280;19224;52.462;16.898;2023-04-30T00:57:08;100485.06;;;8.22;100.00
32873;BME280;19224;52.462;16.898;2023-04-30T00:59:40;100482.97;;;8.16;100.00
32873;BME280;19224;52.462;16.898;2023-04-30T01:02:11;100485.84;;;8.11;100.00
32873;BME280;19224;52.462;16.898;2023-04-30T01:04:42;100488.95;;;7.83;100.00
32873;BME280;19224;52.462;16.898;2023-04-30T01:07:13;100488.22;;;7.78;100.00
32873;BME280;19224;52.462;16.898;2023-04-30T01:09:43;100494.41;;;7.80;100.00
32873;BME280;19224;52.462;16.898;2023-04-30T01:15:35;100501.75;;;7.59;100.00
32873;BME280;19224;52.462;16.898;2023-04-30T01:18:24;100500.09;;;7.55;100.00
32873;BME280;19224;52.462;16.898;2023-04-30T01:21:03;100505.52;;;7.52;100.00
32873;BME280;19224;52.462;16.898;2023-04-30T01:23:56;100498.41;;;7.51;100.00
32873;BME280;19224;52.462;16.898;2023-04-30T01:29:24;100504.95;;;7.41;100.00
32873;BME280;19224;52.462;16.898;2023-04-30T01:31:56;100508.46;;;7.43;100.00
32873;BME280;19224;52.462;16.898;2023-04-30T01:34:26;100515.52;;;7.31;100.00
32873;BME280;19224;52.462;16.898;2023-04-30T01:37:51;100518.29;;;7.44;100.00
32873;BME280;19224;52.462;16.898;2023-04-30T01:51:44;100531.42;;;7.21;100.00
32873;BME280;19224;52.462;16.898;2023-04-30T02:00:00;100534.81;;;7.12;100.00
32873;BME280;19224;52.462;16.898;2023-04-30T02:02:31;100545.00;;;7.15;100.00
32873;BME280;19224;52.462;16.898;2023-04-30T02:05:01;100536.48;;;7.16;100.00
32873;BME280;19224;52.462;16.898;2023-04-30T02:07:43;100539.61;;;7.17;100.00
32873;BME280;19224;52.462;16.898;2023-04-30T02:10:16;100543.33;;;7.11;100.00
32873;BME280;19224;52.462;16.898;2023-04-30T02:12:47;100543.14;;;7.17;100.00
32873;BME280;19224;52.462;16.898;2023-04-30T02:15:18;100545.92;;;7.14;100.00
32873;BME280;19224;52.462;16.898;2023-04-30T02:17:48;100553.36;;;7.03;100.00
32873;BME280;19224;52.462;16.898;2023-04-30T02:20:19;100559.58;;;7.04;100.00
32873;BME280;19224;52.462;16.898;2023-04-30T02:22:50;100565.94;;;7.00;100.00
32873;BME280;19224;52.462;16.898;2023-04-30T02:25:20;100567.73;;;6.99;100.00
32873;BME280;19224;52.462;16.898;2023-04-30T02:27:51;100566.36;;;7.01;100.00
32873;BME280;19224;52.462;16.898;2023-04-30T02:30:21;100572.79;;;7.11;100.00
32873;BME280;19224;52.462;16.898;2023-04-30T02:32:51;100573.38;;;7.05;100.00
32873;BME280;19224;52.462;16.898;2023-04-30T02:35:22;100575.09;;;6.92;100.00
32873;BME280;19224;52.462;16.898;2023-04-30T02:37:52;100573.28;;;6.92;100.00
32873;BME280;19224;52.462;16.898;2023-04-30T02:40:22;100577.27;;;6.94;100.00
32873;BME280;19224;52.462;16.898;2023-04-30T02:42:53;100572.54;;;6.87;100.00
32873;BME280;19224;52.462;16.898;2023-04-30T02:45:24;100574.19;;;6.75;100.00
32873;BME280;19224;52.462;16.898;2023-04-30T02:47:55;100584.84;;;6.77;100.00
32873;BME280;19224;52.462;16.898;2023-04-30T02:50:25;100579.65;;;6.71;100.00
32873;BME280;19224;52.462;16.898;2023-04-30T02:52:56;100582.44;;;6.66;100.00
32873;BME280;19224;52.462;16.898;2023-04-30T02:55:26;100591.50;;;6.61;100.00
32873;BME280;19224;52.462;16.898;2023-04-30T02:57:56;100588.69;;;6.67;100.00
32873;BME280;19224;52.462;16.898;2023-04-30T03:00:26;100594.19;;;6.59;100.00
32873;BME280;19224;52.462;16.898;2023-04-30T03:02:57;100596.84;;;6.61;100.00
32873;BME280;19224;52.462;16.898;2023-04-30T03:05:29;100598.19;;;6.61;100.00
32873;BME280;19224;52.462;16.898;2023-04-30T03:07:59;100603.12;;;6.60;100.00
32873;BME280;19224;52.462;16.898;2023-04-30T03:10:30;100602.58;;;6.46;100.00
32873;BME280;19224;52.462;16.898;2023-04-30T03:13:00;100608.39;;;6.44;100.00
32873;BME280;19224;52.462;16.898;2023-04-30T03:15:32;100607.67;;;6.55;100.00
32873;BME280;19224;52.462;16.898;2023-04-30T03:18:03;100612.56;;;6.38;100.00
32873;BME280;19224;52.462;16.898;2023-04-30T03:20:33;100610.54;;;6.47;100.00
32873;BME280;19224;52.462;16.898;2023-04-30T03:23:03;100611.77;;;6.52;100.00
32873;BME280;19224;52.462;16.898;2023-04-30T03:25:34;100621.92;;;6.38;100.00
32873;BME280;19224;52.462;16.898;2023-04-30T03:28:05;100612.09;;;6.19;100.00
32873;BME280;19224;52.462;16.898;2023-04-30T03:30:35;100614.72;;;6.21;100.00
32873;BME280;19224;52.462;16.898;2023-04-30T03:33:05;100626.41;;;6.17;100.00
32873;BME280;19224;52.462;16.898;2023-04-30T03:35:35;100623.29;;;6.17;100.00
32873;BME280;19224;52.462;16.898;2023-04-30T03:38:06;100625.81;;;6.23;100.00
32873;BME280;19224;52.462;16.898;2023-04-30T03:40:36;100625.79;;;6.25;100.00
32873;BME280;19224;52.462;16.898;2023-04-30T03:43:06;100627.25;;;6.39;100.00
32873;BME280;19224;52.462;16.898;2023-04-30T03:45:37;100630.25;;;6.24;100.00
32873;BME280;19224;52.462;16.898;2023-04-30T03:48:07;100636.53;;;6.22;100.00
32873;BME280;19224;52.462;16.898;2023-04-30T03:50:38;100634.23;;;6.26;100.00
32873;BME280;19224;52.462;16.898;2023-04-30T03:53:08;100641.76;;;6.28;100.00
32873;BME280;19224;52.462;16.898;2023-04-30T03:55:38;100642.80;;;6.21;100.00
32873;BME280;19224;52.462;16.898;2023-04-30T03:58:09;100651.48;;;6.11;100.00
32873;BME280;19224;52.462;16.898;2023-04-30T04:00:40;100655.91;;;6.12;100.00
32873;BME280;19224;52.462;16.898;2023-04-30T04:03:11;100657.50;;;6.21;100.00
32873;BME280;19224;52.462;16.898;2023-04-30T04:05:41;100656.12;;;6.24;100.00
32873;BME280;19224;52.462;16.898;2023-04-30T04:08:11;100660.59;;;6.22;100.00
32873;BME280;19224;52.462;16.898;2023-04-30T04:10:42;100666.19;;;6.11;100.00
32873;BME280;19224;52.462;16.898;2023-04-30T04:13:12;100674.37;;;6.04;100.00
32873;BME280;19224;52.462;16.898;2023-04-30T04:15:43;100670.30;;;6.07;100.00
32873;BME280;19224;52.462;16.898;2023-04-30T04:18:13;100677.05;;;6.04;100.00
32873;BME280;19224;52.462;16.898;2023-04-30T04:20:43;100678.97;;;5.97;100.00
32873;BME280;19224;52.462;16.898;2023-04-30T04:23:13;100680.33;;;5.96;100.00
32873;BME280;19224;52.462;16.898;2023-04-30T04:25:44;100679.90;;;5.95;100.00
32873;BME280;19224;52.462;16.898;2023-04-30T04:28:15;100690.69;;;6.11;100.00
32873;BME280;19224;52.462;16.898;2023-04-30T04:30:45;100692.24;;;6.02;100.00
32873;BME280;19224;52.462;16.898;2023-04-30T04:33:16;100695.87;;;5.98;100.00
32873;BME280;19224;52.462;16.898;2023-04-30T04:35:46;100700.70;;;6.01;100.00
32873;BME280;19224;52.462;16.898;2023-04-30T04:38:16;100704.89;;;6.14;100.00
32873;BME280;19224;52.462;16.898;2023-04-30T04:40:54;100715.48;;;6.19;100.00
32873;BME280;19224;52.462;16.898;2023-04-30T04:43:25;100704.39;;;6.16;100.00
32873;BME280;19224;52.462;16.898;2023-04-30T04:45:55;100710.28;;;6.33;100.00
32873;BME280;19224;52.462;16.898;2023-04-30T04:48:26;100717.41;;;6.33;100.00
32873;BME280;19224;52.462;16.898;2023-04-30T04:50:56;100715.06;;;6.38;100.00
32873;BME280;19224;52.462;16.898;2023-04-30T04:53:26;100716.69;;;6.47;100.00
32873;BME280;19224;52.462;16.898;2023-04-30T04:55:56;100721.39;;;6.55;100.00
32873;BME280;19224;52.462;16.898;2023-04-30T04:58:27;100725.91;;;6.53;100.00
32873;BME280;19224;52.462;16.898;2023-04-30T05:00:57;100724.55;;;6.54;100.00
32873;BME280;19224;52.462;16.898;2023-04-30T05:03:31;100731.98;;;6.61;100.00
32873;BME280;19224;52.462;16.898;2023-04-30T05:06:03;100741.23;;;6.67;100.00
32873;BME280;19224;52.462;16.898;2023-04-30T05:08:33;100738.49;;;6.68;100.00
32873;BME280;19224;52.462;16.898;2023-04-30T05:11:04;100739.81;;;6.70;100.00
32873;BME280;19224;52.462;16.898;2023-04-30T05:13:34;100749.00;;;6.77;100.00
32873;BME280;19224;52.462;16.898;2023-04-30T05:16:07;100753.26;;;6.86;100.00
32873;BME280;19224;52.462;16.898;2023-04-30T05:18:37;100753.14;;;6.92;100.00
32873;BME280;19224;52.462;16.898;2023-04-30T05:21:07;100753.38;;;7.00;100.00
32873;BME280;19224;52.462;16.898;2023-04-30T05:23:39;100754.50;;;7.09;100.00
32873;BME280;19224;52.462;16.898;2023-04-30T05:26:09;100755.73;;;7.13;100.00
32873;BME280;19224;52.462;16.898;2023-04-30T05:28:42;100759.28;;;7.14;100.00
32873;BME280;19224;52.462;16.898;2023-04-30T05:31:16;100760.09;;;7.17;100.00
32873;BME280;19224;52.462;16.898;2023-04-30T05:33:47;100771.59;;;7.22;100.00
32873;BME280;19224;52.462;16.898;2023-04-30T05:36:17;100768.92;;;7.22;100.00
32873;BME280;19224;52.462;16.898;2023-04-30T05:38:47;100774.42;;;7.34;100.00
32873;BME280;19224;52.462;16.898;2023-04-30T05:41:18;100779.09;;;7.43;100.00
32873;BME280;19224;52.462;16.898;2023-04-30T05:43:52;100785.77;;;7.45;100.00
32873;BME280;19224;52.462;16.898;2023-04-30T05:46:27;100786.89;;;7.54;100.00
32873;BME280;19224;52.462;16.898;2023-04-30T05:48:57;100790.41;;;7.56;100.00
32873;BME280;19224;52.462;16.898;2023-04-30T05:51:29;100798.61;;;7.67;100.00
32873;BME280;19224;52.462;16.898;2023-04-30T05:54:02;100791.32;;;7.72;100.00
32873;BME280;19224;52.462;16.898;2023-04-30T05:56:33;100794.94;;;7.87;100.00
32873;BME280;19224;52.462;16.898;2023-04-30T05:59:03;100803.58;;;7.82;100.00
32873;BME280;19224;52.462;16.898;2023-04-30T06:01:36;100793.59;;;7.87;100.00
32873;BME280;19224;52.462;16.898;2023-04-30T06:04:06;100796.67;;;7.90;100.00
32873;BME280;19224;52.462;16.898;2023-04-30T06:06:37;100811.81;;;7.92;100.00
32873;BME280;19224;52.462;16.898;2023-04-30T06:09:07;100807.07;;;8.02;100.00
32873;BME280;19224;52.462;16.898;2023-04-30T06:11:38;100805.08;;;8.10;100.00
32873;BME280;19224;52.462;16.898;2023-04-30T06:14:12;100813.93;;;8.13;100.00
32873;BME280;19224;52.462;16.898;2023-04-30T06:16:45;100819.20;;;8.16;100.00
32873;BME280;19224;52.462;16.898;2023-04-30T06:19:16;100811.94;;;8.21;100.00
32873;BME280;19224;52.462;16.898;2023-04-30T06:21:46;100815.39;;;8.26;100.00
32873;BME280;19224;52.462;16.898;2023-04-30T06:24:17;100821.47;;;8.33;100.00
32873;BME280;19224;52.462;16.898;2023-04-30T06:26:47;100817.15;;;8.27;100.00
32873;BME280;19224;52.462;16.898;2023-04-30T06:29:21;100816.64;;;8.29;100.00
32873;BME280;19224;52.462;16.898;2023-04-30T06:31:53;100820.49;;;8.51;100.00
32873;BME280;19224;52.462;16.898;2023-04-30T06:34:24;100830.66;;;8.56;100.00
32873;BME280;19224;52.462;16.898;2023-04-30T06:36:54;100822.53;;;8.58;100.00
32873;BME280;19224;52.462;16.898;2023-04-30T06:39:27;100823.40;;;8.74;100.00
32873;BME280;19224;52.462;16.898;2023-04-30T06:41:58;100832.54;;;8.83;100.00
32873;BME280;19224;52.462;16.898;2023-04-30T06:44:29;100829.19;;;8.75;93.02
32873;BME280;19224;52.462;16.898;2023-04-30T06:47:00;100827.97;;;8.71;95.82
32873;BME280;19224;52.462;16.898;2023-04-30T06:49:35;100832.38;;;8.73;98.50
32873;BME280;19224;52.462;16.898;2023-04-30T06:52:05;100828.64;;;8.79;97.16
32873;BME280;19224;52.462;16.898;2023-04-30T06:54:36;100835.78;;;8.94;97.02
32873;BME280;19224;52.462;16.898;2023-04-30T06:57:06;100834.99;;;8.91;97.69
32873;BME280;19224;52.462;16.898;2023-04-30T06:59:37;100835.73;;;8.81;95.27
32873;BME280;19224;52.462;16.898;2023-04-30T07:02:07;100838.89;;;8.95;96.08
32873;BME280;19224;52.462;16.898;2023-04-30T07:04:37;100849.90;;;8.86;94.80
32873;BME280;19224;52.462;16.898;2023-04-30T07:07:08;100839.69;;;8.99;93.46
32873;BME280;19224;52.462;16.898;2023-04-30T07:09:38;100842.12;;;8.92;92.95
32873;BME280;19224;52.462;16.898;2023-04-30T07:12:10;100833.93;;;8.96;91.79
32873;BME280;19224;52.462;16.898;2023-04-30T07:14:42;100847.56;;;8.90;92.06
32873;BME280;19224;52.462;16.898;2023-04-30T07:17:14;100837.23;;;8.91;93.71
32873;BME280;19224;52.462;16.898;2023-04-30T07:19:48;100836.25;;;9.08;92.14
32873;BME280;19224;52.462;16.898;2023-04-30T07:22:18;100828.56;;;9.25;92.93
32873;BME280;19224;52.462;16.898;2023-04-30T07:24:48;100845.20;;;9.23;93.87
32873;BME280;19224;52.462;16.898;2023-04-30T07:27:19;100838.42;;;9.25;87.64
32873;BME280;19224;52.462;16.898;2023-04-30T07:29:50;100845.52;;;9.27;90.61
32873;BME280;19224;52.462;16.898;2023-04-30T07:32:23;100854.96;;;9.26;88.37
32873;BME280;19224;52.462;16.898;2023-04-30T07:34:55;100837.01;;;9.13;89.87
32873;BME280;19224;52.462;16.898;2023-04-30T07:37:26;100834.66;;;9.30;90.35
32873;BME280;19224;52.462;16.898;2023-04-30T07:39:56;100842.89;;;9.53;88.89
32873;BME280;19224;52.462;16.898;2023-04-30T07:42:26;100845.98;;;9.54;89.78
32873;BME280;19224;52.462;16.898;2023-04-30T07:44:59;100854.18;;;9.64;89.42
32873;BME280;19224;52.462;16.898;2023-04-30T07:47:30;100856.20;;;9.43;85.54
32873;BME280;19224;52.462;16.898;2023-04-30T07:50:01;100855.91;;;9.52;88.81
32873;BME280;19224;52.462;16.898;2023-04-30T07:52:31;100859.04;;;9.66;91.46
32873;BME280;19224;52.462;16.898;2023-04-30T07:55:03;100865.17;;;9.71;87.91
32873;BME280;19224;52.462;16.898;2023-04-30T07:57:33;100879.03;;;9.72;87.24
32873;BME280;19224;52.462;16.898;2023-04-30T08:00:05;100861.95;;;9.73;87.74
32873;BME280;19224;52.462;16.898;2023-04-30T08:02:36;100861.55;;;9.85;87.97
32873;BME280;19224;52.462;16.898;2023-04-30T08:05:07;100877.70;;;9.98;86.89
32873;BME280;19224;52.462;16.898;2023-04-30T08:07:37;100869.44;;;9.91;87.46
32873;BME280;19224;52.462;16.898;2023-04-30T08:10:08;100873.14;;;9.87;88.94
32873;BME280;19224;52.462;16.898;2023-04-30T08:12:39;100866.86;;;10.01;85.48
32873;BME280;19224;52.462;16.898;2023-04-30T08:15:09;100867.47;;;9.96;84.73
32873;BME280;19224;52.462;16.898;2023-04-30T08:17:40;100874.34;;;10.06;85.56
32873;BME280;19224;52.462;16.898;2023-04-30T08:20:11;100868.84;;;10.09;82.02
32873;BME280;19224;52.462;16.898;2023-04-30T08:22:41;100870.30;;;10.19;78.80
32873;BME280;19224;52.462;16.898;2023-04-30T08:25:12;100874.86;;;10.17;79.01
32873;BME280;19224;52.462;16.898;2023-04-30T08:27:42;100867.42;;;9.97;75.80
32873;BME280;19224;52.462;16.898;2023-04-30T08:30:13;100875.27;;;10.18;77.71
32873;BME280;19224;52.462;16.898;2023-04-30T08:32:43;100878.59;;;10.13;77.94
32873;BME280;19224;52.462;16.898;2023-04-30T08:35:13;100882.81;;;10.20;77.54
32873;BME280;19224;52.462;16.898;2023-04-30T08:37:49;100878.48;;;10.16;75.33
32873;BME280;19224;52.462;16.898;2023-04-30T08:40:21;100889.47;;;10.23;74.56
32873;BME280;19224;52.462;16.898;2023-04-30T08:43:06;100890.86;;;10.21;71.77
32873;BME280;19224;52.462;16.898;2023-04-30T08:45:27;100889.81;;;10.25;73.72
32873;BME280;19224;52.462;16.898;2023-04-30T08:47:59;100882.36;;;10.33;75.43
32873;BME280;19224;52.462;16.898;2023-04-30T08:50:30;100883.70;;;10.33;76.07
32873;BME280;19224;52.462;16.898;2023-04-30T08:53:01;100891.39;;;10.44;75.36
32873;BME280;19224;52.462;16.898;2023-04-30T08:55:37;100892.43;;;10.53;74.18
32873;BME280;19224;52.462;16.898;2023-04-30T08:58:09;100898.59;;;10.56;74.44
32873;BME280;19224;52.462;16.898;2023-04-30T09:00:42;100895.63;;;10.39;71.88
32873;BME280;19224;52.462;16.898;2023-04-30T09:03:13;100898.36;;;10.38;70.32
32873;BME280;19224;52.462;16.898;2023-04-30T09:05:43;100899.15;;;10.28;72.76
32873;BME280;19224;52.462;16.898;2023-04-30T09:08:39;100896.53;;;10.38;73.94
32873;BME280;19224;52.462;16.898;2023-04-30T09:10:52;100900.33;;;10.46;73.46
32873;BME280;19224;52.462;16.898;2023-04-30T09:13:22;100901.83;;;10.66;70.72
32873;BME280;19224;52.462;16.898;2023-04-30T09:15:52;100902.72;;;10.66;64.84
32873;BME280;19224;52.462;16.898;2023-04-30T09:18:23;100907.81;;;10.49;61.25
32873;BME280;19224;52.462;16.898;2023-04-30T09:20:58;100900.42;;;10.56;60.02
32873;BME280;19224;52.462;16.898;2023-04-30T09:23:30;100900.35;;;10.57;63.46
32873;BME280;19224;52.462;16.898;2023-04-30T09:26:00;100910.86;;;10.78;64.78
32873;BME280;19224;52.462;16.898;2023-04-30T09:28:31;100897.72;;;10.80;67.34
32873;BME280;19224;52.462;16.898;2023-04-30T09:31:01;100899.22;;;10.89;66.47
32873;BME280;19224;52.462;16.898;2023-04-30T09:33:44;100911.55;;;11.07;62.61
32873;BME280;19224;52.462;16.898;2023-04-30T09:36:10;100915.68;;;10.93;60.06
32873;BME280;19224;52.462;16.898;2023-04-30T09:38:40;100898.98;;;10.70;62.36
32873;BME280;19224;52.462;16.898;2023-04-30T09:41:28;100899.91;;;10.69;64.93
32873;BME280;19224;52.462;16.898;2023-04-30T09:43:58;100896.45;;;10.90;62.71
32873;BME280;19224;52.462;16.898;2023-04-30T09:46:33;100901.47;;;11.01;56.60
32873;BME280;19224;52.462;16.898;2023-04-30T09:49:06;100900.00;;;11.04;60.09
32873;BME280;19224;52.462;16.898;2023-04-30T09:51:52;100903.46;;;11.07;57.63
32873;BME280;19224;52.462;16.898;2023-04-30T09:54:12;100899.13;;;11.15;58.76
32873;BME280;19224;52.462;16.898;2023-04-30T09:56:43;100901.81;;;11.26;59.04
32873;BME280;19224;52.462;16.898;2023-04-30T09:59:15;100894.74;;;11.24;56.66
32873;BME280;19224;52.462;16.898;2023-04-30T10:01:46;100901.00;;;11.24;52.28
32873;BME280;19224;52.462;16.898;2023-04-30T10:04:19;100900.95;;;11.26;52.70
32873;BME280;19224;52.462;16.898;2023-04-30T10:06:52;100908.87;;;11.30;53.96
32873;BME280;19224;52.462;16.898;2023-04-30T10:09:28;100886.41;;;11.30;55.57
32873;BME280;19224;52.462;16.898;2023-04-30T10:12:01;100891.22;;;11.33;56.29
32873;BME280;19224;52.462;16.898;2023-04-30T10:14:32;100904.00;;;11.40;54.94
32873;BME280;19224;52.462;16.898;2023-04-30T10:17:10;100878.73;;;11.42;53.95
32873;BME280;19224;52.462;16.898;2023-04-30T10:19:47;100881.17;;;11.48;57.63
32873;BME280;19224;52.462;16.898;2023-04-30T10:22:19;100877.03;;;11.63;58.44
32873;BME280;19224;52.462;16.898;2023-04-30T10:24:50;100879.59;;;11.66;58.93
32873;BME280;19224;52.462;16.898;2023-04-30T10:27:21;100905.67;;;11.67;56.02
32873;BME280;19224;52.462;16.898;2023-04-30T10:29:57;100882.42;;;11.51;55.63
32873;BME280;19224;52.462;16.898;2023-04-30T10:32:35;100882.19;;;11.46;57.84
32873;BME280;19224;52.462;16.898;2023-04-30T10:35:27;100893.70;;;11.62;58.85
32873;BME280;19224;52.462;16.898;2023-04-30T10:38:03;100873.72;;;11.55;57.68
32873;BME280;19224;52.462;16.898;2023-04-30T10:40:37;100881.84;;;11.66;56.70
32873;BME280;19224;52.462;16.898;2023-04-30T10:43:10;100865.20;;;11.67;59.39
32873;BME280;19224;52.462;16.898;2023-04-30T10:45:43;100868.17;;;11.71;56.47
32873;BME280;19224;52.462;16.898;2023-04-30T10:48:15;100869.47;;;11.82;53.56
32873;BME280;19224;52.462;16.898;2023-04-30T10:50:51;100867.84;;;11.99;53.26
32873;BME280;19224;52.462;16.898;2023-04-30T10:53:25;100855.19;;;12.01;51.94
32873;BME280;19224;52.462;16.898;2023-04-30T10:56:03;100864.47;;;11.94;53.91
32873;BME280;19224;52.462;16.898;2023-04-30T10:58:38;100876.24;;;12.03;54.99
32873;BME280;19224;52.462;16.898;2023-04-30T11:01:16;100866.67;;;11.85;51.86
32873;BME280;19224;52.462;16.898;2023-04-30T11:04:09;100873.03;;;11.73;52.92
32873;BME280;19224;52.462;16.898;2023-04-30T11:06:55;100864.81;;;11.97;54.89
32873;BME280;19224;52.462;16.898;2023-04-30T11:09:43;100874.62;;;12.09;54.53
32873;BME280;19224;52.462;16.898;2023-04-30T11:12:20;100863.84;;;12.19;54.16
32873;BME280;19224;52.462;16.898;2023-04-30T11:17:39;100859.02;;;12.37;53.85
32873;BME280;19224;52.462;16.898;2023-04-30T11:20:13;100862.88;;;12.42;52.65
32873;BME280;19224;52.462;16.898;2023-04-30T11:22:45;100861.31;;;12.36;51.24
32873;BME280;19224;52.462;16.898;2023-04-30T11:25:22;100854.69;;;12.23;53.04
32873;BME280;19224;52.462;16.898;2023-04-30T11:27:52;100860.02;;;12.35;48.92
32873;BME280;19224;52.462;16.898;2023-04-30T11:30:24;100857.41;;;12.33;47.34
32873;BME280;19224;52.462;16.898;2023-04-30T11:32:58;100868.73;;;12.41;46.97
32873;BME280;19224;52.462;16.898;2023-04-30T11:35:30;100860.52;;;12.44;49.79
32873;BME280;19224;52.462;16.898;2023-04-30T11:38:02;100858.89;;;12.50;51.16
32873;BME280;19224;52.462;16.898;2023-04-30T11:40:34;100866.45;;;12.52;51.34
32873;BME280;19224;52.462;16.898;2023-04-30T11:43:05;100867.05;;;12.49;50.95
32873;BME280;19224;52.462;16.898;2023-04-30T11:45:35;100862.14;;;12.58;51.23
32873;BME280;19224;52.462;16.898;2023-04-30T11:48:06;100871.86;;;12.62;49.78
32873;BME280;19224;52.462;16.898;2023-04-30T11:50:41;100868.48;;;12.47;47.25
32873;BME280;19224;52.462;16.898;2023-04-30T11:53:11;100864.09;;;12.55;49.07
32873;BME280;19224;52.462;16.898;2023-04-30T11:55:41;100871.11;;;12.69;49.62
32873;BME280;19224;52.462;16.898;2023-04-30T11:58:11;100864.09;;;12.55;50.57
32873;BME280;19224;52.462;16.898;2023-04-30T12:00:42;100868.09;;;12.66;50.43
32873;BME280;19224;52.462;16.898;2023-04-30T12:03:14;100853.67;;;12.36;51.68
32873;BME280;19224;52.462;16.898;2023-04-30T12:05:46;100862.28;;;12.55;52.15
32873;BME280;19224;52.462;16.898;2023-04-30T12:08:18;100868.95;;;12.77;50.08
32873;BME280;19224;52.462;16.898;2023-04-30T12:10:49;100864.44;;;12.57;50.74
32873;BME280;19224;52.462;16.898;2023-04-30T12:13:19;100863.75;;;12.62;52.83
32873;BME280;19224;52.462;16.898;2023-04-30T12:16:01;100850.23;;;12.72;52.88
32873;BME280;19224;52.462;16.898;2023-04-30T12:18:33;100850.98;;;13.06;51.54
32873;BME280;19224;52.462;16.898;2023-04-30T12:21:09;100860.87;;;12.97;44.60
32873;BME280;19224;52.462;16.898;2023-04-30T12:23:38;100871.17;;;12.87;44.97
32873;BME280;19224;52.462;16.898;2023-04-30T12:26:08;100853.87;;;12.91;46.32
32873;BME280;19224;52.462;16.898;2023-04-30T12:28:38;100859.02;;;12.97;47.42
32873;BME280;19224;52.462;16.898;2023-04-30T12:31:09;100860.27;;;13.00;46.46
32873;BME280;19224;52.462;16.898;2023-04-30T12:33:39;100854.86;;;13.00;45.88
32873;BME280;19224;52.462;16.898;2023-04-30T12:36:10;100854.30;;;13.02;45.77
32873;BME280;19224;52.462;16.898;2023-04-30T12:38:59;100860.50;;;13.14;44.32
32873;BME280;19224;52.462;16.898;2023-04-30T12:41:34;100847.85;;;13.05;44.28
32873;BME280;19224;52.462;16.898;2023-04-30T12:44:25;100861.56;;;13.10;43.61
32873;BME280;19224;52.462;16.898;2023-04-30T12:46:57;100859.67;;;13.22;43.54
32873;BME280;19224;52.462;16.898;2023-04-30T12:49:33;100850.87;;;13.17;43.52
32873;BME280;19224;52.462;16.898;2023-04-30T12:52:10;100852.65;;;13.08;43.21
32873;BME280;19224;52.462;16.898;2023-04-30T12:54:40;100850.08;;;13.15;43.25
32873;BME280;19224;52.462;16.898;2023-04-30T12:57:12;100835.55;;;13.36;43.01
32873;BME280;19224;52.462;16.898;2023-04-30T12:59:57;100844.48;;;13.65;42.62
32873;BME280;19224;52.462;16.898;2023-04-30T13:02:29;100851.43;;;13.71;43.82
32873;BME280;19224;52.462;16.898;2023-04-30T13:05:00;100842.87;;;13.53;44.26
32873;BME280;19224;52.462;16.898;2023-04-30T13:07:42;100843.23;;;13.64;45.13
32873;BME280;19224;52.462;16.898;2023-04-30T13:10:25;100842.25;;;13.56;43.91
32873;BME280;19224;52.462;16.898;2023-04-30T13:12:58;100837.33;;;13.46;44.02
32873;BME280;19224;52.462;16.898;2023-04-30T13:15:34;100856.66;;;13.65;43.95
32873;BME280;19224;52.462;16.898;2023-04-30T13:18:04;100843.20;;;13.82;43.04
32873;BME280;19224;52.462;16.898;2023-04-30T13:20:37;100841.33;;;13.74;42.07
32873;BME280;19224;52.462;16.898;2023-04-30T13:23:12;100837.16;;;13.86;43.15
32873;BME280;19224;52.462;16.898;2023-04-30T13:25:43;100834.34;;;14.14;42.86
32873;BME280;19224;52.462;16.898;2023-04-30T13:28:14;100843.64;;;14.27;42.26
32873;BME280;19224;52.462;16.898;2023-04-30T13:30:50;100847.37;;;14.25;43.61
32873;BME280;19224;52.462;16.898;2023-04-30T13:33:17;100837.57;;;13.95;42.47